Flight Track Log - Related Links

Times and Time Zones

All times are in EST time to prevent confusion due to time zone crossing. See the PDT4155 flight status page for this flight to view local times or setup timezone preferences in your user account.

Time Position Orientation Groundspeed Altitude Reporting Facility
EST Latitude Longitude Course Direction KTS MPH feet Rate Location/Type
Thu 07:29:00 AM 41.9384 -75.8914 180° South  Level Estimated
Thu 07:30:00 AM 41.8483 -75.8622 154° Southeast  Level Estimated
Thu 07:31:00 AM 41.7583 -75.8330 160° South  Level Estimated
Thu 07:32:00 AM 41.6682 -75.8039 159° South  Level Estimated
Thu 07:33:00 AM 41.5782 -75.7749 153° Southeast  Level Estimated
Thu 07:34:00 AM 41.4881 -75.7460 161° South  Level Estimated
Thu 07:35:00 AM 41.3975 -75.7203 168° South  Level FlightAware
Thu 07:36:00 AM 41.3074 -75.6914 162° South  Level Estimated
Thu 07:37:00 AM 41.2188 -75.6553 163° South  Level FlightAware
Thu 07:38:00 AM 41.1302 -75.6193 163° South  Level FlightAware
Thu 07:39:00 AM 41.0400 -75.5917 163° South  Level Estimated
Thu 07:40:00 AM 40.9521 -75.5530 162° South  Level FlightAware
Thu 07:41:00 AM 40.8641 -75.5145 162° South  Level FlightAware
Thu 07:42:00 AM 40.7735 -75.4891 190° South  Level Estimated
Thu 07:43:00 AM 40.6809 -75.4928 182° South  Level FlightAware
Thu 07:44:00 AM 40.5883 -75.4965 182° South  Level FlightAware
Thu 07:45:00 AM 40.4990 -75.4643 187° South  Level Estimated
Thu 07:46:00 AM 40.4096 -75.4322 190° South  Level Estimated
Thu 07:47:00 AM 40.3203 -75.4001 180° South  Level Estimated
Thu 07:48:00 AM 40.2309 -75.3682 143° Southeast  Level Estimated
Thu 07:49:00 AM 40.1415 -75.3363 143° Southeast  Level Estimated
Thu 07:50:00 AM 40.0521 -75.3046 143° Southeast  Level Estimated
Thu 07:51:00 AM 39.9627 -75.2729 159° South  Level Estimated
Thu 07:52:00 AM 39.8690 -75.2351 150° Southeast  Level FlightAware
Thu 07:53:00 AM 39.8667 -75.2333 150° Southeast  Level FlightAware
Thu 07:53:51 AM 40.6333 -75.6000 150° Southeast 234 269 5,000  Level Philadelphia TRACON
Thu 07:54:00 AM 39.8722 -75.2409 150° Southeast  Level Estimated
Thu 07:54:45 AM 40.5667 -75.5833 169° South 220 253 5,000  Level Philadelphia TRACON
Thu 07:55:00 AM 39.8722 -75.2409 150° Southeast  Level Estimated
Thu 07:55:45 AM 40.5167 -75.5833 180° South 224 258 5,000  Level Philadelphia TRACON
Thu 07:56:00 AM 39.8722 -75.2409 150° Southeast  Level Estimated
Thu 07:56:45 AM 40.4500 -75.5833 180° South 224 258 5,000  Level Philadelphia TRACON
Thu 07:57:00 AM 39.8722 -75.2409 150° Southeast  Level Estimated
Thu 07:57:45 AM 40.3833 -75.5667 169° South 224 258 5,000  Level Philadelphia TRACON
Thu 07:58:00 AM 39.8722 -75.2409 150° Southeast  Level Estimated
Thu 07:58:45 AM 40.3167 -75.5667 180° South 223 257 4,800  Level Philadelphia TRACON
Thu 07:59:00 AM 39.8722 -75.2409 150° Southeast  Level Estimated
Thu 07:59:39 AM 40.3000 -75.5000 108° East 229 264 4,200  Level Philadelphia TRACON
Thu 08:00:39 AM 40.3000 -75.4167 90° East 230 265 4,000 -95 Descending Philadelphia TRACON
Thu 08:01:45 AM 40.2500 -75.3333 128° Southeast 234 269 4,000  Level Philadelphia TRACON
Thu 08:02:45 AM 40.2167 -75.2833 131° Southeast 231 266 4,000  Level Philadelphia TRACON
Thu 08:03:45 AM 40.1500 -75.2500 159° South 232 267 4,000  Level Philadelphia TRACON
Thu 08:04:45 AM 40.1000 -75.2167 153° Southeast 233 268 4,000  Level Philadelphia TRACON
Thu 08:05:45 AM 40.0333 -75.1833 159° South 213 245 4,000  Level Philadelphia TRACON
Thu 08:06:45 AM 39.9833 -75.1667 166° South 213 245 4,000  Level Philadelphia TRACON
Thu 08:07:39 AM 39.9333 -75.1500 166° South 214 246 4,000 -211 Level Philadelphia TRACON
Thu 08:08:39 AM 39.8667 -75.1333 169° South 215 247 3,600 -950 Descending Philadelphia TRACON
Thu 08:09:39 AM 39.8167 -75.1333 180° South 188 216 2,100 -1,100 Descending Philadelphia TRACON
Thu 08:10:39 AM 39.8167 -75.2000 270° West 134 154 1,400 -684 Descending Philadelphia TRACON
Thu 08:11:33 AM 39.8500 -75.2167 339° North 90 104 800 -632 Descending Philadelphia TRACON
Thu 08:12:33 AM 39.8667 -75.2333 322° Northwest 96 110 200 -600 Descending Philadelphia TRACON

Login

Don't have an account? Register now (free) for customized features, flight alerts, and more!